Time;durP1;ratioP1;P1;durP2;ratioP2;P2;SDS_P1;SDS_P2;PMS_P1;PMS_P2;Temp;Humidity;BMP_temperature;BMP_pressure;BME280_temperature;BME280_humidity;BME280_pressure;Samples;Min_cycle;Max_cycle;Signal;HPM_P1;HPM_P2
2022/06/16 00:01:43;;;;;;;6.43;4.10;;;;;;;19.30;95.98;99968.88;5033742;28;20108;-65
2022/06/16 00:04:08;;;;;;;7.00;4.03;;;;;;;19.54;94.79;99955.50;5033957;28;20026;-65
2022/06/16 00:06:34;;;;;;;6.80;3.92;;;;;;;19.65;92.99;99964.56;5033719;28;20030;-65
2022/06/16 00:08:59;;;;;;;5.05;3.72;;;;;;;19.65;92.80;99963.72;5033966;28;20036;-65
2022/06/16 00:11:25;;;;;;;5.78;4.45;;;;;;;19.67;93.12;99950.97;5033167;28;20049;-66
2022/06/16 00:13:51;;;;;;;6.18;4.05;;;;;;;19.65;93.19;99956.47;5033771;28;20040;-66
2022/06/16 00:16:18;;;;;;;8.07;3.83;;;;;;;19.60;93.71;99952.41;5043058;28;20095;-66
2022/06/16 00:18:44;;;;;;;8.75;4.40;;;;;;;19.33;94.13;99957.88;5053865;28;20086;-66
2022/06/16 00:21:10;;;;;;;7.85;4.57;;;;;;;19.10;95.38;99960.38;5053414;28;20050;-66
2022/06/16 00:23:36;;;;;;;6.60;4.03;;;;;;;18.98;96.14;99951.28;5053750;28;20021;-66
2022/06/16 00:26:02;;;;;;;7.95;4.00;;;;;;;18.84;96.13;99942.41;5042054;28;20028;-65
2022/06/16 00:28:28;;;;;;;6.43;4.20;;;;;;;18.88;96.98;99949.34;5057713;28;20045;-65
2022/06/16 00:31:05;;;;;;;8.05;5.03;;;;;;;18.88;97.23;99955.56;5033485;28;20416;-65
2022/06/16 00:33:31;;;;;;;8.00;5.05;;;;;;;18.86;96.96;99951.28;5038998;28;20021;-65
2022/06/16 00:35:57;;;;;;;11.80;4.65;;;;;;;18.84;97.42;99948.69;5053168;28;20029;-65
2022/06/16 00:38:23;;;;;;;9.57;5.25;;;;;;;18.85;98.07;99938.75;5052292;28;20038;-63
2022/06/16 00:40:49;;;;;;;5.93;4.20;;;;;;;18.87;98.02;99935.00;5049649;28;20559;-63
2022/06/16 00:43:14;;;;;;;7.40;4.50;;;;;;;18.81;98.31;99932.72;5051257;28;20028;-63
2022/06/16 00:45:56;;;;;;;7.93;4.20;;;;;;;18.75;97.79;99937.63;5051105;28;20033;-63
2022/06/16 00:48:31;;;;;;;7.10;4.63;;;;;;;18.74;97.75;99942.19;5052264;28;20043;-63
2022/06/16 00:51:30;;;;;;;7.43;4.20;;;;;;;18.79;97.53;99945.44;5052828;28;20025;-62
2022/06/16 00:54:01;;;;;;;6.88;4.28;;;;;;;18.83;96.42;99944.25;5052831;28;20025;-62
2022/06/16 00:56:27;;;;;;;7.22;3.83;;;;;;;18.79;96.76;99948.13;5038101;28;20493;-62
2022/06/16 00:58:58;;;;;;;9.43;3.90;;;;;;;18.79;96.88;99940.03;5033129;28;20069;-62
2022/06/16 01:01:25;;;;;;;8.25;4.10;;;;;;;18.80;96.96;99940.88;5047502;28;20500;-62
2022/06/16 01:06:36;;;;;;;6.45;3.75;;;;;;;19.03;95.52;99921.31;5052420;28;20079;-62
2022/06/16 01:09:13;;;;;;;7.30;3.80;;;;;;;19.00;95.74;99932.31;5052759;28;20036;-63
2022/06/16 01:15:21;;;;;;;5.95;4.00;;;;;;;19.02;95.18;99939.34;5052577;28;20031;-62
2022/06/16 01:17:49;;;;;;;7.70;3.97;;;;;;;18.88;96.59;99946.66;5052472;28;20476;-64
2022/06/16 01:20:24;;;;;;;6.25;4.15;;;;;;;19.03;96.25;99950.97;5047246;28;20024;-64
2022/06/16 01:22:59;;;;;;;6.68;3.45;;;;;;;18.96;95.73;99949.69;5032465;28;20025;-64
2022/06/16 01:25:36;;;;;;;5.72;3.72;;;;;;;18.83;96.82;99940.72;5032308;28;20028;-64
2022/06/16 01:28:15;;;;;;;5.00;3.50;;;;;;;18.67;97.00;99931.91;5063725;28;20030;-64
2022/06/16 01:31:08;;;;;;;6.78;3.78;;;;;;;18.57;97.76;99922.69;5071984;28;20036;-63
2022/06/16 01:34:04;;;;;;;6.30;4.43;;;;;;;18.64;98.07;99941.06;5071431;28;20032;-63
2022/06/16 01:36:41;;;;;;;8.85;4.20;;;;;;;18.75;97.91;99937.63;5072064;28;20031;-63
2022/06/16 01:39:53;;;;;;;7.50;4.05;;;;;;;18.74;97.45;99935.91;5071930;28;20025;-63
2022/06/16 01:42:35;;;;;;;8.02;4.57;;;;;;;18.77;97.83;99924.94;5060569;28;20033;-64
2022/06/16 01:45:20;;;;;;;11.38;4.43;;;;;;;18.82;97.26;99923.66;5056061;28;20040;-64
2022/06/16 01:47:50;;;;;;;9.63;3.95;;;;;;;18.75;97.37;99924.16;5050473;28;20052;-64
2022/06/16 01:50:41;;;;;;;6.45;4.10;;;;;;;18.63;96.99;99906.16;5046269;28;20466;-64
2022/06/16 01:53:17;;;;;;;7.88;4.22;;;;;;;18.96;96.04;99920.03;5031783;28;20021;-63
2022/06/16 01:55:59;;;;;;;7.43;4.72;;;;;;;19.12;94.91;99918.00;5031716;28;20472;-63
2022/06/16 01:58:31;;;;;;;5.78;3.83;;;;;;;19.10;95.19;99920.81;5030253;28;20029;-63
2022/06/16 02:01:00;;;;;;;6.18;4.28;;;;;;;19.10;94.99;99917.25;5030338;28;20053;-63
2022/06/16 02:03:30;;;;;;;6.05;4.00;;;;;;;19.12;94.72;99912.63;5030182;28;20032;-64
2022/06/16 02:06:01;;;;;;;6.78;3.92;;;;;;;19.03;93.78;99924.00;5029755;28;20029;-64
2022/06/16 02:08:34;;;;;;;5.53;3.95;;;;;;;19.00;93.37;99925.09;5037666;28;20048;-64
2022/06/16 02:11:07;;;;;;;7.65;4.38;;;;;;;18.89;93.30;99929.50;5049990;28;20040;-64
2022/06/16 02:13:39;;;;;;;6.60;4.15;;;;;;;18.94;93.15;99924.66;5051578;28;20392;-64
2022/06/16 02:16:10;;;;;;;6.40;4.22;;;;;;;18.89;94.79;99924.09;5051464;28;20473;-64
2022/06/16 02:18:38;;;;;;;6.03;4.10;;;;;;;18.94;93.84;99933.63;5051356;28;20510;-64
2022/06/16 02:21:16;;;;;;;9.13;4.55;;;;;;;19.01;93.38;99934.06;5051433;28;20029;-64
2022/06/16 02:23:42;;;;;;;9.20;4.43;;;;;;;18.96;93.29;99925.44;5051410;28;20024;-64
2022/06/16 02:26:08;;;;;;;6.28;4.50;;;;;;;18.92;93.41;99922.06;5039537;28;20477;-64
2022/06/16 02:28:45;;;;;;;9.63;4.40;;;;;;;18.99;95.05;99919.81;5071575;28;20365;-64
2022/06/16 02:31:21;;;;;;;7.75;4.85;;;;;;;19.05;94.14;99924.78;5071224;28;20392;-64
2022/06/16 02:34:31;;;;;;;6.18;4.13;;;;;;;19.13;95.04;99927.81;5056524;28;20039;-64
2022/06/16 02:37:23;;;;;;;6.80;4.40;;;;;;;19.12;94.06;99926.09;5048898;28;20038;-64
2022/06/16 02:40:23;;;;;;;9.63;4.35;;;;;;;19.04;93.75;99917.69;5031532;28;20044;-64
2022/06/16 02:43:28;;;;;;;9.00;4.78;;;;;;;18.91;93.63;99927.56;5031186;28;20113;-64
2022/06/16 02:46:29;;;;;;;6.22;4.10;;;;;;;18.74;94.63;99925.13;5031293;28;20054;-64
2022/06/16 02:49:29;;;;;;;11.20;4.97;;;;;;;18.55;94.89;99913.88;5031243;28;20025;-64
2022/06/16 02:52:14;;;;;;;10.38;4.47;;;;;;;18.59;94.84;99923.47;5031184;28;20385;-64
2022/06/16 02:55:30;;;;;;;8.88;4.50;;;;;;;18.69;95.09;99932.66;5031309;28;20025;-64
2022/06/16 02:57:59;;;;;;;8.18;5.28;;;;;;;18.72;94.49;99949.50;5028851;28;20033;-64
2022/06/16 03:00:34;;;;;;;9.30;4.50;;;;;;;18.74;94.80;99957.47;5028692;28;20068;-64
2022/06/16 03:03:19;;;;;;;9.80;4.72;;;;;;;18.77;94.87;99957.25;5030241;28;20033;-64
2022/06/16 03:05:44;;;;;;;6.63;4.47;;;;;;;18.85;94.19;99960.31;5031382;28;20018;-64
2022/06/16 03:08:10;;;;;;;9.82;4.35;;;;;;;18.94;93.29;99962.41;5031154;28;20036;-64
2022/06/16 03:10:54;;;;;;;8.60;4.90;;;;;;;19.05;92.98;99973.31;5043250;28;20087;-64
2022/06/16 03:13:26;;;;;;;7.30;4.70;;;;;;;19.16;91.85;99968.06;5050977;28;20115;-63
2022/06/16 03:15:53;;;;;;;8.07;4.20;;;;;;;19.25;92.05;99964.72;5051193;28;20522;-63
2022/06/16 03:18:20;;;;;;;6.72;5.07;;;;;;;19.24;91.15;99971.09;5048674;28;20472;-63
2022/06/16 03:20:46;;;;;;;8.05;4.65;;;;;;;19.17;91.34;99967.09;5034674;28;20025;-63
2022/06/16 03:23:12;;;;;;;8.25;4.15;;;;;;;19.21;92.07;99977.56;5034218;28;20492;-63
2022/06/16 03:25:38;;;;;;;14.60;4.57;;;;;;;19.10;91.60;99961.25;5032768;28;20515;-64
2022/06/16 03:28:04;;;;;;;9.35;4.55;;;;;;;19.30;91.64;99984.19;5064596;28;20516;-64
2022/06/16 03:30:30;;;;;;;11.77;4.82;;;;;;;19.30;92.55;99994.97;5072473;28;20350;-64
2022/06/16 03:32:55;;;;;;;7.47;5.03;;;;;;;19.24;92.19;99980.03;5072346;28;20392;-64
2022/06/16 03:35:21;;;;;;;6.78;4.10;;;;;;;19.29;92.55;99985.19;5068943;28;20550;-64
2022/06/16 03:37:46;;;;;;;11.45;4.22;;;;;;;19.29;92.89;99985.19;5051051;28;20021;-64
2022/06/16 03:40:13;;;;;;;9.48;4.35;;;;;;;19.26;92.78;99983.50;5052332;28;20104;-64
2022/06/16 03:42:39;;;;;;;7.25;4.30;;;;;;;19.39;92.34;99994.34;5052377;28;20025;-64
2022/06/16 03:45:05;;;;;;;6.63;4.55;;;;;;;19.43;91.99;100001.25;5037672;28;20038;-64
2022/06/16 03:47:31;;;;;;;8.60;4.63;;;;;;;19.47;92.02;100002.78;5032156;28;20076;-64
2022/06/16 03:49:56;;;;;;;9.35;4.50;;;;;;;19.49;91.27;99990.03;5032595;28;20026;-64
2022/06/16 03:52:22;;;;;;;7.15;5.25;;;;;;;19.49;92.83;99992.72;5033928;28;20477;-65
2022/06/16 03:54:47;;;;;;;7.47;4.65;;;;;;;19.46;92.71;99992.94;5033732;28;20029;-65
2022/06/16 03:57:13;;;;;;;7.78;4.47;;;;;;;19.48;90.08;100004.50;5033200;28;20449;-64
2022/06/16 03:59:38;;;;;;;6.90;4.32;;;;;;;19.52;89.87;99997.94;5033073;28;20033;-64
2022/06/16 04:02:04;;;;;;;8.45;4.78;;;;;;;19.67;89.50;100007.66;5033116;28;20033;-64
2022/06/16 04:04:29;;;;;;;8.30;4.90;;;;;;;19.74;89.59;100003.56;5033420;28;20033;-64
2022/06/16 04:06:55;;;;;;;8.07;4.60;;;;;;;19.81;87.28;100009.38;5032721;28;20033;-64
2022/06/16 04:09:20;;;;;;;7.15;4.68;;;;;;;19.90;87.54;99996.09;5032728;28;20079;-64
2022/06/16 04:11:46;;;;;;;6.93;4.47;;;;;;;19.99;86.88;100006.25;5033577;28;20413;-65
2022/06/16 04:14:13;;;;;;;6.05;4.78;;;;;;;20.06;88.05;100018.34;5034705;28;20025;-64
2022/06/16 04:16:45;;;;;;;9.98;4.45;;;;;;;20.16;87.11;100011.34;5051555;28;20429;-64
2022/06/16 04:19:12;;;;;;;11.32;4.68;;;;;;;20.23;86.33;100020.72;5053562;28;20428;-64
2022/06/16 04:21:40;;;;;;;7.53;4.60;;;;;;;20.31;85.95;100023.72;5052734;28;20468;-64
2022/06/16 04:24:06;;;;;;;7.32;4.55;;;;;;;20.32;86.23;100025.47;5052369;28;20476;-64
2022/06/16 04:26:33;;;;;;;7.80;4.63;;;;;;;20.34;86.22;100023.53;5043586;28;20432;-64
2022/06/16 04:28:59;;;;;;;6.60;3.63;;;;;;;20.36;86.22;100020.72;5072135;28;20020;-64
2022/06/16 04:31:25;;;;;;;;;;;;;;;20.38;87.11;100021.44;5051390;28;20444;-64
2022/06/16 04:33:50;;;;;;;;;;;;;;;20.31;86.14;100012.94;5033274;28;19917;-64
2022/06/16 04:36:16;;;;;;;;;;;;;;;20.33;86.88;100016.38;5045906;28;19956;-65
2022/06/16 04:38:42;;;;;;;;;;;;;;;20.09;87.63;100011.84;5053527;28;19937;-64
2022/06/16 04:41:07;;;;;;;;;;;;;;;20.27;87.17;100013.25;5053613;28;19999;-64
2022/06/16 04:43:33;;;;;;;;;;;;;;;20.37;87.90;100028.72;5053434;28;19908;-64
2022/06/16 04:45:58;;;;;;;;;;;;;;;20.45;87.76;100031.72;5053596;28;19942;-64
2022/06/16 04:48:24;;;;;;;;;;;;;;;20.46;87.27;100038.84;5051944;28;19924;-64
2022/06/16 04:50:49;;;;;;;;;;;;;;;20.51;87.68;100042.06;5053176;28;19962;-64
2022/06/16 04:53:14;;;;;;;;;;;;;;;20.62;87.02;100028.66;5053262;28;20269;-64
2022/06/16 04:55:40;;;;;;;;;;;;;;;20.69;86.22;100035.31;5045014;28;19917;-64
2022/06/16 04:58:05;;;;;;;;;;;;;;;20.74;87.30;100043.13;5033423;28;19920;-64
2022/06/16 05:00:30;;;;;;;;;;;;;;;20.81;86.08;100049.78;5033050;28;20311;-64
2022/06/16 05:02:56;;;;;;;;;;;;;;;20.80;86.30;100058.88;5031909;28;19952;-64
2022/06/16 05:05:22;;;;;;;;;;;;;;;20.78;86.88;100056.28;5030633;28;19964;-64
2022/06/16 05:07:47;;;;;;;;;;;;;;;20.83;87.12;100059.50;5030317;28;20329;-64
2022/06/16 05:10:12;;;;;;;;;;;;;;;20.86;88.14;100056.56;5029837;28;19959;-64
2022/06/16 05:12:38;;;;;;;;;;;;;;;20.93;88.03;100060.56;5029837;28;19919;-64
2022/06/16 05:15:03;;;;;;;;;;;;;;;21.00;87.66;100071.81;5030472;28;19945;-64
2022/06/16 05:17:29;;;;;;;;;;;;;;;21.12;86.81;100070.03;5032543;28;19916;-64
2022/06/16 05:19:54;;;;;;;;;;;;;;;21.28;85.29;100076.03;5052087;28;20003;-64
2022/06/16 05:22:20;;;;;;;;;;;;;;;21.44;83.16;100087.41;5051860;28;19913;-63
2022/06/16 05:24:45;;;;;;;;;;;;;;;21.61;79.17;100095.13;5042197;28;20012;-64
2022/06/16 05:27:10;;;;;;;;;;;;;;;21.73;79.33;100092.31;5048970;28;20147;-64
2022/06/16 05:29:36;;;;;;;;;;;;;;;21.86;79.36;100092.28;5071551;28;20362;-64
2022/06/16 05:32:01;;;;;;;;;;;;;;;22.00;78.82;100083.94;5071582;28;19913;-64
2022/06/16 05:34:27;;;;;;;;;;;;;;;22.18;79.28;100099.63;5071628;28;20363;-64
2022/06/16 05:36:52;;;;;;;;;;;;;;;22.28;79.89;100091.63;5072536;28;20280;-64
2022/06/16 05:39:17;;;;;;;;;;;;;;;22.34;78.07;100085.69;5062387;28;20376;-64
2022/06/16 05:41:44;;;;;;;;;;;;;;;22.43;78.06;100095.81;5052567;28;19912;-64
2022/06/16 05:44:10;;;;;;;;;;;;;;;22.46;77.23;100098.28;5052356;28;19912;-64
2022/06/16 05:46:35;;;;;;;;;;;;;;;22.48;77.21;100093.59;5052465;28;19916;-64
2022/06/16 05:49:00;;;;;;;;;;;;;;;22.46;77.14;100101.00;5052022;28;19912;-64
2022/06/16 05:51:26;;;;;;;;;;;;;;;22.47;76.36;100097.28;5046576;28;19975;-65
2022/06/16 05:53:51;;;;;;;;;;;;;;;22.41;74.42;100092.38;5032383;28;19917;-65
2022/06/16 05:56:17;;;;;;;;;;;;;;;22.38;75.44;100098.03;5032164;28;19909;-64
2022/06/16 05:58:42;;;;;;;;;;;;;;;22.48;76.55;100107.16;5032446;28;20380;-64
2022/06/16 06:01:08;;;;;;;;;;;;;;;22.75;76.98;100106.81;5032196;28;19909;-64
2022/06/16 06:03:33;;;;;;;;;;;;;;;22.97;74.83;100115.78;5031970;28;20112;-64
2022/06/16 06:05:59;;;;;;;;;;;;;;;23.17;73.15;100115.03;5031956;28;20361;-64
2022/06/16 06:16:41;;;;;;;;;;;;;;;23.66;71.08;100127.25;5032071;28;20448;-64
2022/06/16 06:19:26;;;;;;;;;;;;;;;23.69;71.11;100127.81;5032059;28;20003;-64
2022/06/16 06:22:02;;;;;;;;;;;;;;;23.76;71.25;100134.47;5034976;28;19916;-64
2022/06/16 06:24:39;;;;;;;;;;;;;;;23.89;71.90;100145.16;5031856;28;19919;-64
2022/06/16 06:27:14;;;;;;;;;;;;;;;23.97;71.61;100156.25;5041802;28;20292;-64
2022/06/16 06:29:40;;;;;;;;;;;;;;;23.99;72.10;100157.00;5051794;28;20003;-63
2022/06/16 06:32:05;;;;;;;;;;;;;;;23.96;72.71;100159.94;5051712;28;20000;-63
2022/06/16 06:34:30;;;;;;;;;;;;;;;24.06;72.64;100164.50;5051638;28;19924;-64
2022/06/16 06:36:56;;;;;;;;;;;;;;;24.24;72.47;100167.50;5051651;28;20368;-63
2022/06/16 06:39:21;;;;;;;;;;;;;;;24.51;71.79;100162.38;5051928;28;19913;-63
2022/06/16 06:41:47;;;;;;;;;;;;;;;24.71;70.36;100160.66;5051628;28;19920;-64
2022/06/16 06:44:12;;;;;;;;;;;;;;;24.84;68.62;100167.59;5051787;28;20019;-63
2022/06/16 06:46:38;;;;;;;;;;;;;;;25.17;68.34;100170.00;5051664;28;19958;-64
2022/06/16 06:49:03;;;;;;;;;;;;;;;25.43;66.74;100176.72;5051791;28;19912;-64
2022/06/16 06:51:29;;;;;;;;;;;;;;;25.69;64.33;100171.59;5052882;28;20322;-64
2022/06/16 06:53:54;;;;;;;;;;;;;;;25.95;61.23;100176.34;5055627;28;20324;-63
2022/06/16 06:56:19;;;;;;;;;;;;;;;26.22;59.58;100191.16;5041884;28;19919;-63
2022/06/16 06:58:45;;;;;;;;;;;;;;;26.42;60.03;100192.88;5035638;28;19909;-63
2022/06/16 07:01:10;;;;;;;;;;;;;;;26.40;58.50;100197.59;5034706;28;20277;-63
2022/06/16 07:03:35;;;;;;;;;;;;;;;26.24;58.68;100200.06;5035316;28;19909;-63
2022/06/16 07:06:01;;;;;;;;;;;;;;;26.03;58.20;100210.25;5035338;28;20003;-63
2022/06/16 07:08:27;;;;;;;;;;;;;;;26.19;58.29;100205.09;5035798;28;20323;-63
2022/06/16 07:10:52;;;;;;;;;;;;;;;26.46;56.57;100210.66;5034985;28;19970;-62
2022/06/16 07:13:18;;;;;;;;;;;;;;;26.68;55.61;100205.78;5035135;28;19912;-63
2022/06/16 07:15:44;;;;;;;;;;;;;;;26.89;55.35;100224.66;5035221;28;19912;-63
2022/06/16 07:18:09;;;;;;;;;;;;;;;27.23;54.14;100217.66;5034704;28;20313;-63
2022/06/16 07:20:34;;;;;;;;;;;;;;;27.60;51.85;100226.69;5050099;28;19951;-63
2022/06/16 07:23:00;;;;;;;;;;;;;;;27.62;52.30;100224.69;5052014;28;19986;-63
2022/06/16 07:25:25;;;;;;;;;;;;;;;27.60;53.11;100237.63;5048641;28;19909;-63
2022/06/16 07:27:53;;;;;;;;;;;;;;;27.76;50.64;100239.72;5048553;28;20058;-63
2022/06/16 07:30:19;;;;;;;;;;;;;;;28.09;51.04;100239.91;5034535;28;20000;-63
2022/06/16 07:32:45;;;;;;;;;;;;;;;28.44;51.05;100239.03;5034969;28;19971;-63
2022/06/16 07:35:12;;;;;;;;;;;;;;;28.87;48.79;100240.94;5034993;28;20331;-63
2022/06/16 07:37:37;;;;;;;;;;;;;;;29.35;49.66;100233.06;5034859;28;20368;-63
2022/06/16 07:40:03;;;;;;;;;;;;;;;29.44;46.06;100237.56;5034649;28;19915;-63
2022/06/16 07:42:29;;;;;;;;;;;;;;;29.60;46.00;100240.38;5034790;28;19936;-63
2022/06/16 07:44:54;;;;;;;;;;;;;;;29.89;44.55;100240.84;5034583;28;19916;-63
2022/06/16 07:47:20;;;;;;;;;;;;;;;30.10;44.70;100238.47;5034780;28;20324;-64
2022/06/16 07:49:48;;;;;;;;;;;;;;;30.43;45.34;100234.78;5053131;28;19919;-64
2022/06/16 07:52:14;;;;;;;;;;;;;;;30.76;43.93;100236.47;5045127;28;19913;-64
2022/06/16 07:54:39;;;;;;;;;;;;;;;31.06;42.97;100242.28;5042173;28;20360;-64
2022/06/16 07:57:05;;;;;;;;;;;;;;;31.13;42.66;100244.19;5031708;28;19920;-64
2022/06/16 07:59:30;;;;;;;;;;;;;;;31.09;42.52;100245.56;5030950;28;19913;-64
2022/06/16 08:01:55;;;;;;;;;;;;;;;31.21;41.82;100243.28;5032484;28;20274;-64
2022/06/16 08:04:21;;;;;;;;;;;;;;;31.32;41.25;100249.31;5032005;28;19913;-66
2022/06/16 08:06:46;;;;;;;;;;;;;;;31.55;41.47;100254.91;5031771;28;19916;-66
2022/06/16 08:09:12;;;;;;;;;;;;;;;31.11;39.68;100254.50;5044087;28;19913;-65
2022/06/16 08:14:22;;;;;;;;;;;;;;;31.72;41.59;100257.41;5048105;28;19968;-65
2022/06/16 08:16:47;;;;;;;;;;;;;;;31.64;39.88;100257.44;5051118;28;19917;-65
2022/06/16 08:19:13;;;;;;;;;;;;;;;31.82;39.65;100263.56;5044965;28;19938;-65
2022/06/16 08:21:38;;;;;;;;;;;;;;;32.30;39.74;100273.47;5031045;28;19923;-65
2022/06/16 08:24:06;;;;;;;;;;;;;;;32.55;38.75;100269.53;5048390;28;20030;-66
2022/06/16 08:26:31;;;;;;;;;;;;;;;32.42;38.42;100276.69;5041852;28;20425;-66
2022/06/16 08:28:57;;;;;;;;;;;;;;;32.31;37.52;100268.81;5062528;28;19955;-66
2022/06/16 08:31:23;;;;;;;;;;;;;;;32.24;38.63;100270.56;5029352;28;20377;-66
2022/06/16 08:33:49;;;;;;;;;;;;;;;32.55;37.67;100277.78;5035224;28;19947;-66
2022/06/16 08:36:15;;;;;;;;;;;;;;;32.20;37.07;100270.06;5040649;28;19934;-66
2022/06/16 08:38:40;;;;;;;;;;;;;;;31.98;38.13;100274.50;5047394;28;19933;-66
2022/06/16 08:41:12;;;;;;;;;;;;;;;32.30;38.71;100273.47;5028928;28;19967;-65
2022/06/16 08:43:49;;;;;;;;;;;;;;;32.14;38.31;100274.41;5043161;28;20418;-66
2022/06/16 08:46:17;;;;;;;;;;;;;;;32.60;36.57;100280.84;5050319;28;19971;-66
2022/06/16 08:48:51;;;;;;;;;;;;;;;32.99;37.73;100281.56;5049117;28;19921;-65
2022/06/16 08:51:40;;;;;;;;;;;;;;;33.09;36.48;100282.16;5030266;28;19925;-65
2022/06/16 08:54:08;;;;;;;;;;;;;;;33.30;36.89;100279.50;5030443;28;19946;-65
2022/06/16 08:56:39;;;;;;;;;;;;;;;33.64;36.24;100270.69;5031840;28;19954;-65
2022/06/16 08:59:05;;;;;;;;;;;;;;;33.45;36.75;100289.72;5035796;28;19975;-65
2022/06/16 09:01:56;;;;;;;;;;;;;;;33.66;36.46;100270.50;5051867;28;20286;-65
2022/06/16 09:04:21;;;;;;;;;;;;;;;33.77;35.18;100283.81;5041838;28;19931;-65
2022/06/16 09:07:05;;;;;;;;;;;;;;;33.89;36.09;100293.34;5049219;28;20401;-66
2022/06/16 09:12:33;;;;;;;;;;;;;;;33.84;34.04;100287.53;5031975;28;19946;-66
2022/06/16 09:15:14;;;;;;;;;;;;;;;34.24;34.00;100289.75;5049183;28;20021;-66
2022/06/16 09:17:51;;;;;;;;;;;;;;;34.27;33.42;100286.59;5030309;28;19925;-66
2022/06/16 09:20:26;;;;;;;;;;;;;;;34.21;35.13;100288.25;5036552;28;19927;-66
2022/06/16 09:22:52;;;;;;;;;;;;;;;34.54;34.26;100292.25;5033116;28;19939;-66
2022/06/16 09:25:34;;;;;;;;;;;;;;;34.69;34.84;100289.44;5034625;28;20379;-66
2022/06/16 09:28:07;;;;;;;;;;;;;;;34.51;33.20;100289.03;5049488;28;20321;-66
2022/06/16 09:30:36;;;;;;;;;;;;;;;34.74;32.74;100283.28;5045364;28;19925;-66
2022/06/16 09:33:11;;;;;;;;;;;;;;;34.71;33.13;100290.09;5048036;28;19994;-66
2022/06/16 09:35:56;;;;;;;;;;;;;;;34.58;34.76;100289.97;5048732;28;19933;-66
2022/06/16 09:38:21;;;;;;;;;;;;;;;34.82;35.08;100295.06;5046037;28;19934;-67
2022/06/16 09:40:50;;;;;;;;;;;;;;;34.90;34.96;100292.19;5047597;28;19931;-68
2022/06/16 09:43:18;;;;;;;;;;;;;;;35.07;34.92;100304.69;5051494;28;20022;-68
2022/06/16 09:45:44;;;;;;;;;;;;;;;35.07;34.14;100303.84;5047561;28;19933;-67
2022/06/16 09:48:18;;;;;;;;;;;;;;;35.09;34.42;100313.63;5046691;28;19936;-67
2022/06/16 09:50:52;;;;;;;;;;;;;;;35.01;34.48;100322.06;5052280;28;19929;-67
2022/06/16 09:53:37;;;;;;;;;;;;;;;34.75;34.95;100319.03;5044997;28;19912;-67
2022/06/16 09:56:05;;;;;;;;;;;;;;;34.61;36.64;100313.56;5049812;28;19990;-67
2022/06/16 09:58:30;;;;;;;;;;;;;;;34.54;36.19;100319.03;5051954;28;19934;-67
2022/06/16 10:00:57;;;;;;;;;;;;;;;34.65;37.08;100315.72;5051146;28;19938;-67
2022/06/16 10:03:29;;;;;;;;;;;;;;;34.74;35.79;100320.09;5039748;28;19936;-67
2022/06/16 10:06:02;;;;;;;;;;;;;;;35.04;37.47;100324.44;5050739;28;19939;-67
2022/06/16 10:08:35;;;;;;;;;;;;;;;35.07;33.68;100332.34;5046296;28;19930;-67
2022/06/16 10:11:13;;;;;;;;;;;;;;;34.97;34.83;100331.84;5050496;28;19989;-67
2022/06/16 10:13:41;;;;;;;;;;;;;;;35.24;36.64;100333.75;5042611;28;19967;-67
2022/06/16 10:16:12;;;;;;;;;;;;;;;35.49;34.64;100340.59;5042752;28;19931;-67
2022/06/16 10:18:38;;;;;;;;;;;;;;;35.52;34.11;100340.19;5045916;28;19930;-67
2022/06/16 10:21:07;;;;;;;;;;;;;;;35.71;35.19;100345.00;5048599;28;19929;-67
2022/06/16 10:23:43;;;;;;;;;;;;;;;35.64;33.64;100352.41;5043535;28;20094;-67
2022/06/16 10:26:09;;;;;;;;;;;;;;;35.56;33.54;100354.47;5049976;28;19922;-67
2022/06/16 10:28:44;;;;;;;;;;;;;;;35.70;34.18;100351.59;5054177;28;19929;-68
2022/06/16 10:31:15;;;;;;;;;;;;;;;36.20;32.48;100352.31;5051227;28;19974;-70
2022/06/16 10:34:01;;;;;;;;;;;;;;;36.15;34.45;100354.84;5046093;28;19987;-69
2022/06/16 10:36:27;;;;;;;;;;;;;;;36.13;33.65;100362.53;5045702;28;19989;-68
2022/06/16 10:39:14;;;;;;;;;;;;;;;36.09;33.41;100367.63;5051955;28;19982;-66
2022/06/16 10:41:54;;;;;;;;;;;;;;;36.38;34.13;100356.25;5047790;28;20402;-67
2022/06/16 10:44:21;;;;;;;;;;;;;;;36.20;32.25;100363.38;5043688;28;20354;-67
2022/06/16 10:46:58;;;;;;;;;;;;;;;36.38;33.76;100377.56;5050689;28;19994;-68
2022/06/16 10:49:28;;;;;;;;;;;;;;;36.60;34.51;100365.28;5044861;28;19926;-68
2022/06/16 10:52:20;;;;;;;;;;;;;;;36.83;31.56;100376.91;5043715;28;19929;-68
2022/06/16 10:55:00;;;;;;;;;;;;;;;36.74;32.14;100378.09;5050199;28;19936;-66
2022/06/16 10:57:27;;;;;;;;;;;;;;;36.92;32.00;100378.44;5045641;28;19927;-66
2022/06/16 10:59:58;;;;;;;;;;;;;;;36.95;31.01;100369.69;5044339;28;19987;-66
2022/06/16 11:02:25;;;;;;;;;;;;;;;36.66;32.41;100364.44;5048937;28;20398;-66
2022/06/16 11:05:02;;;;;;;;;;;;;;;36.60;31.15;100371.69;5050811;28;19940;-66
2022/06/16 11:07:34;;;;;;;;;;;;;;;36.18;30.96;100365.53;5042534;28;20517;-66
2022/06/16 11:10:05;;;;;;;;;;;;;;;36.27;32.71;100370.69;5042009;28;20029;-67
2022/06/16 11:12:31;;;;;;;;;;;;;;;36.63;32.74;100370.41;5047540;28;19945;-67
2022/06/16 11:14:59;;;;;;;;;;;;;;;36.96;31.05;100365.81;5051019;28;20359;-67
2022/06/16 11:17:27;;;;;;;;;;;;;;;37.28;32.32;100365.03;5051161;28;19925;-67
2022/06/16 11:20:01;;;;;;;;;;;;;;;36.95;30.46;100364.13;5043805;28;19987;-67
2022/06/16 11:22:34;;;;;;;;;;;;;;;37.30;33.19;100373.97;5045415;28;19924;-67
2022/06/16 11:24:59;;;;;;;;;;;;;;;37.58;30.78;100366.28;5047205;28;19973;-67
2022/06/16 11:27:24;;;;;;;;;;;;;;;37.56;29.83;100368.44;5055906;28;19935;-67
2022/06/16 11:29:49;;;;;;;;;;;;;;;37.56;31.08;100367.59;5037562;28;20395;-67
2022/06/16 11:32:24;;;;;;;;;;;;;;;37.66;30.30;100363.28;5051669;28;19930;-68
2022/06/16 11:34:50;;;;;;;;;;;;;;;37.61;31.13;100359.47;5035804;28;19963;-68
2022/06/16 11:37:34;;;;;;;;;;;;;;;37.72;31.18;100358.81;5047827;28;19962;-68
2022/06/16 11:40:04;;;;;;;;;;;;;;;37.63;29.69;100363.72;5053960;28;19924;-68
2022/06/16 11:42:39;;;;;;;;;;;;;;;37.60;29.34;100358.59;5054429;28;19971;-68
2022/06/16 11:45:10;;;;;;;;;;;;;;;37.58;29.80;100359.91;5051852;28;19942;-68
2022/06/16 11:47:42;;;;;;;;;;;;;;;37.79;30.01;100360.53;5044474;28;19925;-68
2022/06/16 11:50:07;;;;;;;;;;;;;;;37.75;30.02;100367.59;5051866;28;20002;-68
2022/06/16 11:52:41;;;;;;;;;;;;;;;37.51;29.76;100359.91;5046352;28;20046;-68
2022/06/16 11:55:18;;;;;;;;;;;;;;;37.54;30.15;100350.28;5053382;28;20544;-68
2022/06/16 11:57:50;;;;;;;;;;;;;;;38.08;30.64;100351.69;5054332;28;19937;-68
2022/06/16 12:00:19;;;;;;;;;;;;;;;38.08;28.37;100345.25;5053169;28;19931;-68
2022/06/16 12:02:59;;;;;;;;;;;;;;;38.34;28.90;100344.34;5054180;28;19925;-68
2022/06/16 12:05:33;;;;;;;;;;;;;;;38.27;31.60;100341.59;5048861;28;19999;-68
2022/06/16 12:08:04;;;;;;;;;;;;;;;37.61;30.95;100340.03;5046392;28;20444;-68
2022/06/16 12:10:37;;;;;;;;;;;;;;;38.10;31.56;100340.34;5053454;28;19960;-68
2022/06/16 12:13:30;;;;;;;;;;;;;;;38.66;29.57;100343.34;5054160;28;19912;-68
2022/06/16 12:16:14;;;;;;;;;;;;;;;38.55;29.05;100339.31;5054665;28;20019;-68
2022/06/16 12:18:42;;;;;;;;;;;;;;;38.44;29.77;100339.16;5053960;28;19950;-68
2022/06/16 12:21:26;;;;;;;;;;;;;;;37.84;29.66;100340.44;5048434;28;19986;-68
2022/06/16 12:24:00;;;;;;;;;;;;;;;38.16;30.66;100329.22;5054201;28;19929;-68
2022/06/16 12:26:28;;;;;;;;;;;;;;;38.33;30.04;100325.94;5048821;28;19943;-68
2022/06/16 12:28:54;;;;;;;;;;;;;;;38.72;30.54;100331.28;5054190;28;19979;-68
2022/06/16 12:31:22;;;;;;;;;;;;;;;38.16;29.94;100320.88;5048014;28;19974;-68
2022/06/16 12:34:00;;;;;;;;;;;;;;;37.97;31.32;100319.03;5046562;28;20072;-68
2022/06/16 12:36:37;;;;;;;;;;;;;;;37.93;30.03;100314.97;5045525;28;20341;-68
2022/06/16 12:39:12;;;;;;;;;;;;;;;38.15;31.24;100313.63;5052225;28;20408;-68
2022/06/16 12:41:45;;;;;;;;;;;;;;;38.35;31.35;100318.25;5051999;28;19946;-68
2022/06/16 12:44:16;;;;;;;;;;;;;;;37.97;29.41;100316.25;5052922;28;19975;-68
2022/06/16 12:46:51;;;;;;;;;;;;;;;38.13;29.57;100324.09;5052067;28;19936;-69
2022/06/16 12:49:19;;;;;;;;;;;;;;;38.15;30.43;100319.19;5051518;28;20053;-69
2022/06/16 12:51:47;;;;;;;;;;;;;;;38.26;29.05;100325.09;5052453;28;20030;-69